createdAt,value
2023-03-21T00:11:02.731Z,86.41
2023-03-21T00:23:04.905Z,87.01
2023-03-21T00:35:29.665Z,89.06
2023-03-21T00:47:07.536Z,88.95
2023-03-21T00:59:04.609Z,89.64
2023-03-21T01:11:05.027Z,85.96
2023-03-21T01:23:09.747Z,82.00
2023-03-21T01:35:05.971Z,84.83
2023-03-21T01:47:11.833Z,87.43
2023-03-21T01:59:09.496Z,83.90
2023-03-21T02:11:07.287Z,85.67
2023-03-21T02:23:07.731Z,88.50
2023-03-21T02:35:08.189Z,84.26
2023-03-21T02:47:08.748Z,85.62
2023-03-21T02:59:11.370Z,86.80
2023-03-21T03:11:09.566Z,89.64
2023-03-21T03:23:10.011Z,91.26
2023-03-21T03:35:10.406Z,87.43
2023-03-21T03:47:22.939Z,83.11
2023-03-21T03:59:14.066Z,89.79
2023-03-21T04:11:14.007Z,93.77
2023-03-21T04:23:12.264Z,90.45
2023-03-21T04:35:12.702Z,90.08
2023-03-21T04:47:13.193Z,90.86
2023-03-21T04:59:15.848Z,91.19
2023-03-21T05:11:14.066Z,84.47
2023-03-21T05:23:14.509Z,90.54
2023-03-21T05:35:15.004Z,91.44
2023-03-21T05:47:15.411Z,91.72
2023-03-21T05:59:15.881Z,93.16
2023-03-21T06:11:16.373Z,91.80
2023-03-21T06:23:16.806Z,88.42
2023-03-21T06:35:17.229Z,86.03
2023-03-21T06:47:17.692Z,84.23
2023-03-21T06:59:18.126Z,79.10
2023-03-21T07:11:18.621Z,77.42
2023-03-21T07:23:19.086Z,75.35
2023-03-21T07:35:19.506Z,60.64
2023-03-21T07:47:19.954Z,54.30
2023-03-21T07:59:20.434Z,52.98
2023-03-21T08:11:20.842Z,53.40
2023-03-21T08:23:21.306Z,52.96
2023-03-21T08:35:21.757Z,50.07
2023-03-21T08:47:22.230Z,46.80
2023-03-21T08:59:22.664Z,46.71
